Latest Coastal Weather Observations for Lady Elliot Island

IDQ60701

Issued at 6:51 am EST Saturday 23 May 2015 (issued every 10 minutes, with the page automatically refreshed every 10 minutes)

About coastal observations | Map of coastal stations | Coastal observations for QLD | Marine services | Other Formats
Station Details ID: 039059 Name: LADY ELLIOT ISLAND Lat: -24.11 Lon: 152.72 Height: 3.6 m
Data from the previous 72 hours. | See also: Recent months at Lady Elliot Island
Date/Time
EST
Temp

°C
Wind Pressure Rain
since 9am
mm
Weather Cloud Vis
km
Sea
Height
m
Swell
Dir
 
Speed
knots
Gust
knots
hPa Trend Height
m
Period
s
Dir
23/06:36am 18.3 S 15 25 1019.3 - 0.0 - - - - - - -
23/06:30am 18.3 S 16 24 1019.2 - 0.0 - - - - - - -
23/06:00am 18.0 S 14 24 1019.1 - 0.0 - - - - - - -
23/05:41am 17.8 S 15 27 1019.0 - 0.0 - - - - - - -
23/05:30am 17.6 S 15 24 1019.0 - 0.0 - - - - - - -
23/05:00am 17.4 S 16 24 1018.6 - 0.0 - - - - - - -
23/04:30am 17.2 S 17 24 1018.3 - 0.0 - - - - - - -
23/04:00am 17.0 S 18 25 1018.3 - 0.0 - - - - - - -
23/03:30am 17.1 S 17 25 1018.3 - 0.0 - - - - - - -
23/03:00am 17.1 S 20 29 1018.4 - 0.0 - - - - - - -
23/02:41am 17.0 S 19 29 1018.4 - 0.0 - - - - - - -
23/02:30am 16.9 S 21 28 1018.3 - 0.0 - - - - - - -
23/02:02am 16.9 S 19 29 1018.7 - 0.0 - - - - - - -
23/02:00am 16.9 S 20 29 1018.7 - 0.0 - - - - - - -
23/01:30am 17.2 S 20 29 1018.9 - 0.0 - - - - - - -
23/01:17am 16.9 SSW 21 31 1018.9 - 0.0 - - - - - - -
23/01:00am 17.2 SSW 20 28 1019.2 - 0.0 - - - - - - -
23/12:34am 17.3 SSW 18 28 1019.6 - 0.0 - - - - - - -
23/12:30am 17.1 S 20 28 1019.7 - 0.0 - - - - - - -
23/12:14am 17.1 SSW 19 29 1019.6 - 0.0 - - - - - - -
23/12:00am 17.2 SSW 18 27 1019.7 - 0.0 - - - - - - -
 
Date/Time
EST
Temp

°C
Wind Pressure Rain
since 9am
mm
Weather Cloud Vis
km
Sea
Height
m
Swell
Dir
 
Speed
knots
Gust
knots
hPa Trend Height
m
Period
s
Dir
22/11:30pm 17.1 SSW 16 26 1020.2 - 0.0 - - - - - - -
22/11:23pm 17.1 SSW 16 26 1020.2 - 0.0 - - - - - - -
22/11:00pm 17.3 SSW 17 24 1020.1 - 0.0 - - - - - - -
22/10:39pm 17.1 SSW 19 32 1020.1 - 0.0 - - - - - - -
22/10:30pm 17.3 SSW 19 27 1020.0 - 0.0 - - - - - - -
22/10:00pm 17.0 SSW 19 26 1020.2 - 0.0 - - - - - - -
22/09:36pm 16.9 SSW 18 28 1020.4 - 0.0 - - - - - - -
22/09:30pm 17.0 SSW 20 29 1020.6 - 0.0 - - - - - - -
22/09:00pm 17.5 SSW 20 30 1020.1 - 0.0 - - - - - - -
22/08:30pm 18.7 SSW 16 26 1019.7 - 0.0 - - - - - - -
22/08:22pm 19.0 SSW 15 25 1019.5 - 0.0 - - - - - - -
22/08:00pm 19.3 SW 13 21 1019.3 - 0.0 - - - - - - -
22/07:30pm 19.9 SW 13 21 1018.9 - 0.0 - - - - - - -
22/07:00pm 20.0 SSW 13 20 1018.4 - 0.0 - - - - - - -
22/06:30pm 20.4 SW 13 20 1018.1 - 0.0 - - - - - - -
22/06:00pm 20.5 SW 12 17 1017.8 - 0.0 - - - - - - -
22/05:30pm 20.7 SSW 13 18 1017.2 - 0.0 - - - - - - -
22/05:00pm 21.0 SW 12 19 1016.9 - 0.0 - - - - - - -
22/04:30pm 21.5 SSW 11 16 1016.6 - 0.0 - - - - - - -
22/04:00pm 21.9 SSW 12 17 1016.3 - 0.0 - - - - - - -
22/03:30pm 22.2 SW 11 16 1016.1 - 0.0 - - - - - - -
22/03:00pm 22.2 SW 10 16 1016.0 - 0.0 - - - - - - -
22/02:30pm 22.1 SW 10 16 1016.1 - 0.0 - - - - - - -
22/02:00pm 22.0 SW 9 14 1016.3 - 0.0 - - - - - - -
22/01:30pm 21.9 SSW 11 17 1016.5 - 0.0 - - - - - - -
22/01:00pm 21.9 SSW 12 19 1016.7 - 0.0 - - - - - - -
22/12:30pm 20.9 SSW 16 22 1017.0 - 0.0 - - - - - - -
22/12:00pm 21.4 S 15 20 1017.3 - 0.0 - - - - - - -
22/11:30am 20.9 SSW 15 22 1017.8 - 0.0 - - - - - - -
22/11:00am 20.8 S 16 22 1017.9 - 0.0 - - - - - - -
22/10:30am 20.5 S 16 21 1018.3 - 0.0 - - - - - - -
22/10:00am 20.4 SSW 14 20 1018.3 - 0.0 - - - - - - -
22/09:30am 19.9 SSW 14 21 1018.4 - 0.0 - - - - - - -
22/09:10am 19.9 SSW 16 26 1018.3 - 0.0 - - - - - - -
22/09:00am 20.0 SSW 17 25 1018.2 - 2.4 - - - - - - -
22/08:30am 19.8 SSW 15 22 1017.8 - 2.4 - - - - - - -
22/08:00am 19.6 SSW 15 25 1017.7 - 2.4 - - - - - - -
22/07:59am 19.5 SSW 15 25 1017.7 - 2.4 - - - - - - -
22/07:30am 19.5 SSW 16 24 1017.3 - 2.4 - - - - - - -
22/07:11am 19.5 SSW 16 26 1017.1 - 2.4 - - - - - - -
22/07:00am 19.3 S 18 26 1016.9 - 2.4 - - - - - - -
22/06:30am 18.6 S 18 25 1016.9 - 2.4 - - - - - - -
22/06:00am 18.7 SSW 16 23 1016.7 - 2.4 - - - - - - -
22/05:30am 18.6 SSW 15 23 1016.5 - 2.0 - - - - - - -
22/05:05am 19.1 SSW 15 25 1016.1 - 1.4 - - - - - - -
22/05:00am 19.4 SSW 14 25 1016.0 - 1.2 - - - - - - -
22/04:48am 19.4 SSW 16 26 1015.8 - 1.0 - - - - - - -
22/04:30am 19.4 SSW 17 24 1015.6 - 0.8 - - - - - - -
22/04:00am 19.6 SSW 15 22 1015.6 - 0.8 - - - - - - -
22/03:30am 20.1 SSW 12 21 1015.5 - 0.8 - - - - - - -
22/03:00am 20.4 SSW 12 19 1015.2 - 0.8 - - - - - - -
22/02:30am 20.7 SSW 11 17 1015.3 - 0.8 - - - - - - -
22/02:00am 22.3 WSW 12 19 1015.6 - 0.0 - - - - - - -
22/01:30am 24.1 NW 8 13 1015.3 - 0.0 - - - - - - -
22/01:00am 24.0 NNW 11 16 1015.5 - 0.0 - - - - - - -
22/12:30am 24.0 NNW 12 16 1015.8 - 0.0 - - - - - - -
22/12:00am 24.0 N 14 17 1016.0 - 0.0 - - - - - - -
 
Date/Time
EST
Temp

°C
Wind Pressure Rain
since 9am
mm
Weather Cloud Vis
km
Sea
Height
m
Swell
Dir
 
Speed
knots
Gust
knots
hPa Trend Height
m
Period
s
Dir
21/11:30pm 23.9 N 12 15 1016.4 - 0.0 - - - - - - -
21/11:00pm 24.0 N 12 15 1016.8 - 0.0 - - - - - - -
21/10:30pm 23.9 N 14 17 1017.0 - 0.0 - - - - - - -
21/10:00pm 24.1 N 12 16 1017.1 - 0.0 - - - - - - -
21/09:30pm 24.1 N 11 14 1017.4 - 0.0 - - - - - - -
21/09:00pm 24.1 N 13 16 1017.3 - 0.0 - - - - - - -
21/08:30pm 23.9 N 12 15 1017.3 - 0.0 - - - - - - -
21/08:00pm 24.0 N 12 15 1017.0 - 0.0 - - - - - - -
21/07:30pm 24.0 N 11 15 1017.0 - 0.0 - - - - - - -
21/07:00pm 24.1 N 10 15 1016.5 - 0.0 - - - - - - -
21/06:30pm 24.1 N 10 14 1016.4 - 0.0 - - - - - - -
21/06:00pm 23.9 N 11 14 1016.1 - 0.0 - - - - - - -
21/05:30pm 24.1 N 10 13 1016.0 - 0.0 - - - - - - -
21/05:00pm 24.2 N 9 12 1015.9 - 0.0 - - - - - - -
21/04:30pm 24.7 N 7 9 1016.1 - 0.0 - - - - - - -
21/04:00pm 25.1 N 7 10 1015.8 - 0.0 - - - - - - -
21/03:30pm 24.9 N 5 7 1015.7 - 0.0 - - - - - - -
21/03:00pm 24.9 N 5 8 1015.8 - 0.0 - - - - - - -
21/02:30pm 25.0 NW 4 6 1015.9 - 0.0 - - - - - - -
21/02:00pm 25.7 NNW 5 6 1016.1 - 0.0 - - - - - - -
21/01:30pm 25.5 NW 6 8 1016.3 - 0.0 - - - - - - -
21/01:00pm 25.1 NNW 5 7 1016.8 - 0.0 - - - - - - -
21/12:30pm 26.0 NNW 7 8 1017.2 - 0.0 - - - - - - -
21/12:00pm 25.4 N 7 8 1017.7 - 0.0 - - - - - - -
21/11:30am 25.8 N 6 7 1018.2 - 0.0 - - - - - - -
21/11:00am 24.9 NNW 6 8 1018.6 - 0.0 - - - - - - -
21/10:30am 24.9 NNW 7 10 1019.0 - 0.0 - - - - - - -
21/10:00am 24.2 N 7 9 1019.2 - 0.0 - - - - - - -
21/09:30am 24.7 N 5 7 1019.5 - 0.0 - - - - - - -
21/09:00am 25.0 N 5 7 1019.4 - 4.4 - - - - - - -
21/08:30am 24.1 N 4 5 1019.4 - 4.4 - - - - - - -
21/08:00am 24.4 N 4 5 1019.1 - 4.4 - - - - - - -
21/07:30am 24.0 N 3 4 1019.0 - 4.4 - - - - - - -
21/07:00am 23.3 N 5 6 1018.8 - 4.4 - - - - - - -
21/06:30am 23.1 N 8 9 1018.3 - 4.4 - - - - - - -
21/06:00am 22.7 N 5 7 1018.2 - 4.4 - - - - - - -
21/05:30am 22.7 N 5 7 1017.8 - 4.4 - - - - - - -
21/05:00am 22.5 N 6 8 1017.8 - 4.4 - - - - - - -
21/04:30am 22.1 N 10 13 1017.8 - 4.4 - - - - - - -
21/04:00am 22.0 N 14 17 1017.8 - 4.4 - - - - - - -
21/03:30am 21.8 NNE 3 5 1017.8 - 4.4 - - - - - - -
21/03:00am 21.5 CALM 0 0 1017.9 - 4.4 - - - - - - -
21/02:30am 21.3 N 4 5 1018.2 - 3.8 - - - - - - -
21/02:00am 21.7 N 7 9 1018.5 - 3.2 - - - - - - -
21/01:30am 22.1 N 3 6 1018.5 - 1.4 - - - - - - -
21/01:00am 21.5 SW 3 5 1018.6 - 1.4 - - - - - - -
21/12:30am 21.5 SW 3 5 1018.8 - 1.4 - - - - - - -
21/12:00am 21.6 SW 3 4 1018.9 - 1.2 - - - - - - -
 
Date/Time
EST
Temp

°C
Wind Pressure Rain
since 9am
mm
Weather Cloud Vis
km
Sea
Height
m
Swell
Dir
 
Speed
knots
Gust
knots
hPa Trend Height
m
Period
s
Dir
20/11:30pm 21.5 CALM 0 0 1019.1 - 1.2 - - - - - - -
20/11:00pm 21.6 CALM 0 0 1019.4 - 1.2 - - - - - - -
20/10:30pm 21.6 CALM 0 0 1019.4 - 1.2 - - - - - - -
20/10:00pm 21.6 N 4 6 1019.6 - 1.2 - - - - - - -
20/09:30pm 22.2 N 5 9 1019.7 - 0.8 - - - - - - -
20/09:00pm 23.1 E 9 11 1019.5 - 0.8 - - - - - - -
20/08:30pm 23.2 ESE 9 11 1019.5 - 0.8 - - - - - - -
20/08:00pm 22.8 ESE 8 10 1019.2 - 0.8 - - - - - - -
20/07:30pm 22.7 SE 7 9 1019.0 - 0.8 - - - - - - -
20/07:00pm 22.6 SE 6 8 1018.7 - 0.8 - - - - - - -
20/06:30pm 22.9 SSE 6 9 1018.4 - 0.8 - - - - - - -
20/06:00pm 22.8 SE 8 10 1018.3 - 0.8 - - - - - - -
20/05:30pm 23.1 SSE 6 10 1018.1 - 0.8 - - - - - - -
20/05:00pm 22.9 SSE 6 9 1017.8 - 0.8 - - - - - - -
20/04:30pm 23.2 SSE 7 9 1017.7 - 0.8 - - - - - - -
20/04:00pm 23.1 SSE 6 7 1017.4 - 0.6 - - - - - - -
20/03:30pm 22.6 SSE 7 10 1017.2 - 0.6 - - - - - - -
20/03:00pm 22.8 S 8 13 1017.4 - 0.4 - - - - - - -
20/02:30pm 23.8 S 8 12 1017.5 - 0.4 - - - - - - -
20/02:00pm 23.7 SSE 8 12 1017.5 - 0.4 - - - - - - -
20/01:30pm 25.1 SE 6 8 1017.6 - 0.4 - - - - - - -
20/01:00pm 25.2 SE 5 6 1017.9 - 0.4 - - - - - - -
20/12:30pm 23.7 SE 7 9 1018.2 - 0.4 - - - - - - -
20/12:00pm 25.0 SE 7 9 1018.5 - 0.4 - - - - - - -
20/11:30am 24.4 SE 7 9 1019.0 - 0.4 - - - - - - -
20/11:00am 24.5 SE 8 10 1019.3 - 0.2 - - - - - - -
20/10:30am 24.5 SE 7 9 1019.6 - 0.2 - - - - - - -
20/10:00am 25.1 ESE 7 9 1019.9 - 0.2 - - - - - - -
20/09:30am 25.6 E 5 7 1020.1 - 0.2 - - - - - - -
20/09:00am 24.5 ESE 4 6 1020.0 - 0.8 - - - - - - -
20/08:30am 24.7 E 4 6 1019.9 - 0.8 - - - - - - -
20/08:00am 24.1 ESE 4 6 1019.5 - 0.8 - - - - - - -
20/07:30am 23.3 SE 3 5 1019.3 - 0.8 - - - - - - -
20/07:00am 20.8 CALM 0 0 1019.1 - 0.8 - - - - - - -

Other Formats:

Comma delimited format used in spreadsheet applications
http://www.bom.gov.au/fwo/IDQ60701/IDQ60701.94388.axf

JavaScript Object Notation format (JSON) in row-major order
http://www.bom.gov.au/fwo/IDQ60701/IDQ60701.94388.json